« Back
NWS Peachtree City, Ga » Text Product » AHN Terminal Aerodrome Forecast


Printer-friendly Version
Current Version              Previous Versions:   1  2  3  4  5  6  7  8  9  

Terminal Aerodrome Forecast

218
FTUS42 KFFC 301729
TAFAHN
TAF
KAHN 301729Z 3018/3118 12006KT P6SM SCT045
     FM310100 00000KT P6SM FEW050
     FM310900 00000KT 5SM BR BKN012
     FM311500 16004KT P6SM BKN025
     FM311700 19005KT P6SM VCSH SCT035 BKN050 PROB30 3117/3118 3SM
      TSRA BKN025CB=



USA.gov is the U.S. government's official web portal to all federal, state and local government web resources and services.